Morioka, Japan
Current Conditions -  °F | °C
As of 3:22 PM on Monday 22 Dec 2014 (Local Time) from RJSI Reporting Station
Snow Showers Snow Showers  
Wind Chill: 17°   Ceiling: 2000
Heat Index: 27°   Visibility: 0.87mi
Dew Point: 25°   Wind: 9mph
Humidity: 93%   Direction: 170°S
Pressure: 29.74"   Gusts: NA
Location:  39.7°N, 141.15°E
Report Text: RJSI 220622Z 17008KT 1400 R20/P1800N -SHSN FEW004 SCT010 BKN020 M03/M04 Q1007 RMK 1ST004 3ST010 7CU020 A2976
Loading
Personal Weather Stations






























Interactive Weather Map New forecast layout! Learn more

10-Day Weather Forecast

Advertisements
Track Severe Weather on mobile